DE30A LPCS-LPPM

Flight info

Callsign DE30A
Flight time N/A
Altitude 5500
Route DCT CVAPO TSE BRCAR DCT
Aircraft C152/L-V/N

Departure

Time 2026-04-21 15:10
Airport Cascais Airport (LPCS)

Arrival

Time N/A
Airport Portimão Airport (LPPM)
Time Latitude Longitude Altitude Speed Heading
2026-04-21 14:56 38.72330 -9.35286 301 ft 0 kts 155°
2026-04-21 15:00 38.72329 -9.35286 301 ft 1 kts 155°
2026-04-21 15:00 38.72328 -9.35285 300 ft 0 kts 156°
2026-04-21 15:04 38.72312 -9.35302 300 ft 8 kts 247°
2026-04-21 15:05 38.72326 -9.35358 300 ft 7 kts 331°
2026-04-21 15:05 38.72365 -9.35432 300 ft 9 kts 257°
2026-04-21 15:05 38.72404 -9.35484 300 ft 10 kts 344°
2026-04-21 15:06 38.72473 -9.35510 302 ft 11 kts 343°
2026-04-21 15:06 38.72556 -9.35541 306 ft 14 kts 342°
2026-04-21 15:06 38.72662 -9.35587 311 ft 16 kts 338°
2026-04-21 15:06 38.72779 -9.35633 317 ft 18 kts 353°
2026-04-21 15:07 38.72900 -9.35675 326 ft 16 kts 345°
2026-04-21 15:07 38.72959 -9.35684 329 ft 4 kts 150°
2026-04-21 15:07 38.72942 -9.35680 329 ft 0 kts 163°
2026-04-21 15:08 38.72941 -9.35679 329 ft 2 kts 163°
2026-04-21 15:08 38.72718 -9.35594 313 ft 61 kts 162°
2026-04-21 15:08 38.72271 -9.35379 438 ft 67 kts 163°
2026-04-21 15:08 38.71829 -9.35182 569 ft 67 kts 163°
2026-04-21 15:09 38.71420 -9.34897 601 ft 72 kts 148°
2026-04-21 15:09 38.71160 -9.34317 634 ft 71 kts 123°
2026-04-21 15:09 38.70949 -9.33798 657 ft 64 kts 126°
2026-04-21 15:09 38.70753 -9.33260 745 ft 71 kts 127°
2026-04-21 15:10 38.70542 -9.32663 902 ft 79 kts 119°
2026-04-21 15:10 38.70316 -9.31991 999 ft 83 kts 122°
2026-04-21 15:10 38.70072 -9.31352 949 ft 79 kts 130°
2026-04-21 15:10 38.69808 -9.30734 960 ft 77 kts 124°
2026-04-21 15:11 38.69556 -9.30103 911 ft 79 kts 130°
2026-04-21 15:11 38.69293 -9.29468 867 ft 81 kts 133°
2026-04-21 15:11 38.68993 -9.28900 892 ft 78 kts 135°
2026-04-21 15:11 38.68657 -9.28356 838 ft 79 kts 134°
2026-04-21 15:12 38.68319 -9.27804 774 ft 78 kts 140°
2026-04-21 15:12 38.67933 -9.27403 778 ft 71 kts 149°
2026-04-21 15:12 38.67571 -9.27002 826 ft 68 kts 150°
2026-04-21 15:12 38.67216 -9.26614 839 ft 67 kts 155°
2026-04-21 15:13 38.66830 -9.26313 850 ft 66 kts 155°
2026-04-21 15:13 38.66437 -9.25976 859 ft 67 kts 155°
2026-04-21 15:13 38.66068 -9.25641 940 ft 66 kts 154°
2026-04-21 15:13 38.65697 -9.25257 989 ft 75 kts 150°
2026-04-21 15:14 38.65317 -9.24770 1009 ft 84 kts 115°
2026-04-21 15:14 38.64944 -9.24269 980 ft 80 kts 159°
2026-04-21 15:14 38.64447 -9.23897 971 ft 76 kts 159°
2026-04-21 15:14 38.63979 -9.23604 1006 ft 75 kts 166°
2026-04-21 15:15 38.63531 -9.23238 1034 ft 77 kts 154°
2026-04-21 15:15 38.63080 -9.22838 987 ft 79 kts 161°
2026-04-21 15:15 38.62614 -9.22493 986 ft 75 kts 155°
2026-04-21 15:15 38.62160 -9.22197 1043 ft 74 kts 164°
2026-04-21 15:16 38.61682 -9.21946 1065 ft 80 kts 164°
2026-04-21 15:16 38.61172 -9.21761 1071 ft 77 kts 165°
2026-04-21 15:16 38.60644 -9.21530 1025 ft 83 kts 169°
2026-04-21 15:16 38.60098 -9.21259 932 ft 85 kts 163°
2026-04-21 15:17 38.59566 -9.20948 865 ft 84 kts 161°
2026-04-21 15:17 38.59068 -9.20620 888 ft 78 kts 161°
2026-04-21 15:17 38.58554 -9.20379 916 ft 74 kts 169°
2026-04-21 15:17 38.58053 -9.20206 958 ft 73 kts 174°
2026-04-21 15:18 38.57552 -9.20045 973 ft 74 kts 171°
2026-04-21 15:18 38.57083 -9.19866 994 ft 71 kts 173°
2026-04-21 15:18 38.56602 -9.19597 971 ft 78 kts 158°
2026-04-21 15:18 38.56100 -9.19331 955 ft 79 kts 162°
2026-04-21 15:19 38.55581 -9.19134 933 ft 73 kts 186°
2026-04-21 15:19 38.55050 -9.19104 901 ft 77 kts 174°
2026-04-21 15:19 38.54511 -9.18910 883 ft 82 kts 170°
2026-04-21 15:19 38.53985 -9.18713 917 ft 73 kts 172°
2026-04-21 15:20 38.53492 -9.18532 956 ft 77 kts 169°
2026-04-21 15:20 38.52959 -9.18340 947 ft 81 kts 171°
2026-04-21 15:20 38.52411 -9.18171 982 ft 82 kts 179°
2026-04-21 15:20 38.51868 -9.18036 1124 ft 81 kts 158°
2026-04-21 15:21 38.51732 -9.17297 1153 ft 84 kts 97°
2026-04-21 15:21 38.51698 -9.16588 1357 ft 79 kts 83°
2026-04-21 15:21 38.51749 -9.15854 1432 ft 90 kts 89°
2026-04-21 15:21 38.51766 -9.15015 1467 ft 92 kts 96°
2026-04-21 15:22 38.51772 -9.14481 1538 ft 88 kts 95°
2026-04-21 15:22 38.51756 -9.13652 1446 ft 99 kts 98°
2026-04-21 15:22 38.51745 -9.12790 1378 ft 96 kts 91°
2026-04-21 15:22 38.51784 -9.11967 1356 ft 88 kts 93°
2026-04-21 15:23 38.51808 -9.11203 1380 ft 84 kts 92°
2026-04-21 15:23 38.51872 -9.10480 1395 ft 83 kts 94°
2026-04-21 15:23 38.51856 -9.09752 1445 ft 80 kts 102°
2026-04-21 15:23 38.51867 -9.09034 1468 ft 82 kts 95°
2026-04-21 15:24 38.51853 -9.08287 1522 ft 84 kts 96°
2026-04-21 15:24 38.51853 -9.07550 1544 ft 85 kts 91°
2026-04-21 15:24 38.51844 -9.06762 1550 ft 96 kts 101°
2026-04-21 15:24 38.51821 -9.05912 1449 ft 93 kts 98°
2026-04-21 15:25 38.51822 -9.05102 1363 ft 88 kts 98°
2026-04-21 15:25 38.51837 -9.04333 1387 ft 84 kts 94°
2026-04-21 15:25 38.51807 -9.03583 1466 ft 82 kts 100°
2026-04-21 15:25 38.51778 -9.02815 1433 ft 89 kts 100°
2026-04-21 15:26 38.51746 -9.02036 1476 ft 93 kts 102°
2026-04-21 15:26 38.51672 -9.01218 1528 ft 90 kts 104°
2026-04-21 15:26 38.51573 -9.00451 1482 ft 85 kts 133°
2026-04-21 15:26 38.51316 -8.99834 1547 ft 79 kts 98°
2026-04-21 15:27 38.51344 -8.99207 1778 ft 74 kts 85°
2026-04-21 15:27 38.51402 -8.98457 1789 ft 89 kts 87°
2026-04-21 15:27 38.51506 -8.97685 1902 ft 88 kts 83°
2026-04-21 15:27 38.51604 -8.96956 2190 ft 83 kts 86°
2026-04-21 15:28 38.51717 -8.96191 2383 ft 88 kts 79°
2026-04-21 15:28 38.51750 -8.95361 2272 ft 96 kts 103°
2026-04-21 15:28 38.51628 -8.94585 2393 ft 86 kts 108°
2026-04-21 15:28 38.51589 -8.93794 2469 ft 85 kts 99°
2026-04-21 15:29 38.51570 -8.93008 2534 ft 91 kts 92°
2026-04-21 15:29 38.51565 -8.92216 2602 ft 95 kts 89°
2026-04-21 15:29 38.51662 -8.91459 2814 ft 79 kts 86°
2026-04-21 15:29 38.51778 -8.90723 2799 ft 97 kts 79°
2026-04-21 15:30 38.51600 -8.90083 2995 ft 72 kts 156°
2026-04-21 15:30 38.51149 -8.89691 3025 ft 78 kts 154°
2026-04-21 15:30 38.50682 -8.89407 3093 ft 76 kts 166°
2026-04-21 15:30 38.50240 -8.89144 3254 ft 67 kts 163°
2026-04-21 15:31 38.49820 -8.88892 3416 ft 53 kts 191°
2026-04-21 15:31 38.49347 -8.88728 3288 ft 79 kts 159°
2026-04-21 15:32 38.48882 -8.88336 3175 ft 95 kts 151°
2026-04-21 15:32 38.48403 -8.87878 3312 ft 77 kts 153°
2026-04-21 15:32 38.47951 -8.87414 3331 ft 83 kts 148°
2026-04-21 15:32 38.47487 -8.87102 3449 ft 81 kts 156°
2026-04-21 15:33 38.46997 -8.86749 3566 ft 76 kts 156°
2026-04-21 15:33 38.46540 -8.86445 3719 ft 74 kts 165°
2026-04-21 15:33 38.46043 -8.86194 3866 ft 76 kts 170°
2026-04-21 15:33 38.45594 -8.85996 4093 ft 70 kts 158°
2026-04-21 15:34 38.45134 -8.85681 4226 ft 75 kts 157°
2026-04-21 15:34 38.44644 -8.85320 4321 ft 82 kts 162°
2026-04-21 15:34 38.44128 -8.85115 4469 ft 79 kts 179°
2026-04-21 15:34 38.43587 -8.84961 4519 ft 77 kts 176°
2026-04-21 15:35 38.43241 -8.84796 4583 ft 76 kts 157°
2026-04-21 15:36 38.42068 -8.84479 4701 ft 82 kts 154°
2026-04-21 15:37 38.41651 -8.83999 4818 ft 78 kts 144°
2026-04-21 15:37 38.41162 -8.83618 4838 ft 80 kts 160°
2026-04-21 15:37 38.40748 -8.83145 4909 ft 84 kts 136°
2026-04-21 15:37 38.40316 -8.82639 4943 ft 84 kts 149°
2026-04-21 15:38 38.39818 -8.82233 5002 ft 79 kts 162°
2026-04-21 15:38 38.39386 -8.81825 5078 ft 83 kts 156°
2026-04-21 15:38 38.38866 -8.81565 5148 ft 78 kts 173°
2026-04-21 15:38 38.38362 -8.81352 5203 ft 76 kts 174°
2026-04-21 15:39 38.37824 -8.81103 5174 ft 88 kts 166°
2026-04-21 15:39 38.37279 -8.80805 5235 ft 84 kts 163°
2026-04-21 15:39 38.36711 -8.80521 5223 ft 83 kts 174°
2026-04-21 15:39 38.36256 -8.80403 5310 ft 77 kts 179°